Caledon East, Canada
Current Conditions -  °F | °C
As of 2:00 PM on Tuesday 27 Jan 2015 (Local Time) from CYYZ Reporting Station
Broken Clouds Broken Clouds  
Wind Chill:   Ceiling: 11000
Heat Index: 19°   Visibility: 15mi
Dew Point:   Wind: 13mph
Humidity: 54%   Direction: 340°NNW
Pressure: 30.05"   Gusts: NA
Location:  43.87°N, 79.87°W
Report Text: CYYZ 271900Z 34011KT 15SM FEW060 BKN110 M07/M15 A3005 RMK SC1AC4 SLP189
Loading
Personal Weather Stations






























Interactive Weather Map New forecast layout! Learn more

10-Day Weather Forecast

Advertisements
Track Severe Weather on mobile